Aeroporto :
LOGIN :

Iscrizione | Disclaimer

   EN    FR    IT 

 










Sommario :    VFR   VFR Marginale   IFR   IFR Intensivo   IFR Molto Intensivo
Visibilità : 
Base nubi : 
>= 8 km
>= 3000ft
5 / 8 km
1000 / 3000 ft
1500m / 5 km
500 / 1000 ft
800 / 1500m
200 / 500 ft
< 800m
< 200 ft
Simboli :   Temporali  Nebbia  Neve Forte  Precipitazioni Forti  Vento > 20 kt
SIGMETs :   Varie  Temporali  Ghiacco  Turbolenza  Onda orograficha  Ceneri Vulcaniche






- Altitudine del aeroporto : 393 ft
- Codice IATA : TYF


ESST - Torsby

ULTIMO METAR :
  • 141250Z AUTO 11004KT 080V140 9999 BKN013/// OVC018/// 02/01 Q0983

METARs OBSOLETI :
  • 141220Z AUTO 10004KT 060V140 9999 -RA BKN012/// OVC016/// 02/01 Q0983
  • 141150Z AUTO 11005KT 080V140 9999 -RA OVC014/// 02/01 Q0983
  • 141120Z AUTO 10005KT 060V150 9000 -RA FEW008/// OVC018/// 02/01 Q0983
  • 141050Z AUTO 10005KT 070V130 9999 -DZ OVC009/// 02/01 Q0983
  • 141020Z AUTO 10003KT 070V140 9999 -RA OVC009/// 01/01 Q0983 RESHUP RERA

TAF N/A



MetMap, La meteo Aeronautica in un colpo d'occhio ! - Copyright ORBIFLY Dicembre 2007 - Disclaimer

ORBIFLY MET'MAP TEAM :

Programmazione e sviluppo : Alexandra Zaïnal
Concezione : Baudouin d'Aumeries
Aiuto per la programmazione : Marc-Olivier Méhu
Supporto tecnico e logistico : Manuel Goepfert
Aiuto per la traduzione : Arnaldo La Scala

Contatto : metmap@orbifly.com




FONTI E CREDITI :

   NOAA